sensor_id;sensor_type;location;lat;lon;timestamp;P1;durP1;ratioP1;P2;durP2;ratioP2
35022;SDS011;21214;44.912;8.204;2023-07-16T08:18:34;10.90;;;6.00;;
35022;SDS011;21214;44.912;8.204;2023-07-16T08:21:00;10.18;;;5.60;;
35022;SDS011;21214;44.912;8.204;2023-07-16T08:23:25;14.73;;;5.95;;
35022;SDS011;21214;44.912;8.204;2023-07-16T08:25:51;9.40;;;6.38;;
35022;SDS011;21214;44.912;8.204;2023-07-16T08:28:16;8.52;;;6.18;;
35022;SDS011;21214;44.912;8.204;2023-07-16T08:30:42;7.75;;;6.53;;
35022;SDS011;21214;44.912;8.204;2023-07-16T08:33:08;8.13;;;6.20;;
35022;SDS011;21214;44.912;8.204;2023-07-16T08:35:33;8.50;;;6.20;;
35022;SDS011;21214;44.912;8.204;2023-07-16T08:37:59;9.60;;;6.40;;
35022;SDS011;21214;44.912;8.204;2023-07-16T08:40:25;9.52;;;6.10;;
35022;SDS011;21214;44.912;8.204;2023-07-16T08:42:52;6.53;;;5.80;;
35022;SDS011;21214;44.912;8.204;2023-07-16T08:45:18;8.70;;;5.73;;
35022;SDS011;21214;44.912;8.204;2023-07-16T08:47:46;6.35;;;5.57;;
35022;SDS011;21214;44.912;8.204;2023-07-16T08:50:11;11.60;;;5.50;;
35022;SDS011;21214;44.912;8.204;2023-07-16T08:52:38;8.00;;;6.00;;
35022;SDS011;21214;44.912;8.204;2023-07-16T08:55:05;7.90;;;5.35;;
35022;SDS011;21214;44.912;8.204;2023-07-16T08:57:31;10.40;;;5.47;;
35022;SDS011;21214;44.912;8.204;2023-07-16T08:59:57;7.80;;;5.90;;
35022;SDS011;21214;44.912;8.204;2023-07-16T09:02:23;8.35;;;5.60;;
35022;SDS011;21214;44.912;8.204;2023-07-16T09:04:49;8.50;;;5.75;;
35022;SDS011;21214;44.912;8.204;2023-07-16T09:56:17;8.95;;;5.28;;
35022;SDS011;21214;44.912;8.204;2023-07-16T09:58:45;6.78;;;5.13;;
35022;SDS011;21214;44.912;8.204;2023-07-16T10:01:10;8.40;;;4.78;;
35022;SDS011;21214;44.912;8.204;2023-07-16T10:03:36;8.35;;;4.93;;
35022;SDS011;21214;44.912;8.204;2023-07-16T10:06:05;6.15;;;4.88;;
35022;SDS011;21214;44.912;8.204;2023-07-16T10:08:33;8.60;;;5.25;;
35022;SDS011;21214;44.912;8.204;2023-07-16T10:10:59;11.40;;;5.65;;
35022;SDS011;21214;44.912;8.204;2023-07-16T10:13:26;7.40;;;4.82;;
35022;SDS011;21214;44.912;8.204;2023-07-16T10:15:52;7.55;;;5.72;;
35022;SDS011;21214;44.912;8.204;2023-07-16T10:18:23;8.40;;;5.70;;
35022;SDS011;21214;44.912;8.204;2023-07-16T10:21:07;10.13;;;5.30;;
35022;SDS011;21214;44.912;8.204;2023-07-16T10:23:40;6.60;;;5.18;;
35022;SDS011;21214;44.912;8.204;2023-07-16T10:26:07;11.68;;;5.00;;
35022;SDS011;21214;44.912;8.204;2023-07-16T10:28:34;6.95;;;5.28;;
35022;SDS011;21214;44.912;8.204;2023-07-16T10:31:00;10.35;;;5.32;;
35022;SDS011;21214;44.912;8.204;2023-07-16T10:33:26;9.43;;;5.20;;
35022;SDS011;21214;44.912;8.204;2023-07-16T10:35:52;6.95;;;5.25;;
35022;SDS011;21214;44.912;8.204;2023-07-16T10:38:18;7.35;;;5.07;;
35022;SDS011;21214;44.912;8.204;2023-07-16T10:40:44;7.60;;;4.97;;
35022;SDS011;21214;44.912;8.204;2023-07-16T10:43:10;13.57;;;5.53;;
35022;SDS011;21214;44.912;8.204;2023-07-16T10:45:39;6.10;;;5.57;;
35022;SDS011;21214;44.912;8.204;2023-07-16T10:48:06;6.22;;;5.03;;
35022;SDS011;21214;44.912;8.204;2023-07-16T12:30:43;4.70;;;4.30;;
35022;SDS011;21214;44.912;8.204;2023-07-16T12:33:08;10.63;;;5.22;;
35022;SDS011;21214;44.912;8.204;2023-07-16T12:35:34;6.88;;;4.88;;
35022;SDS011;21214;44.912;8.204;2023-07-16T12:37:59;9.45;;;6.05;;
35022;SDS011;21214;44.912;8.204;2023-07-16T12:40:25;5.20;;;4.75;;
35022;SDS011;21214;44.912;8.204;2023-07-16T12:50:07;5.73;;;4.50;;
35022;SDS011;21214;44.912;8.204;2023-07-16T12:59:49;6.68;;;4.70;;
35022;SDS011;21214;44.912;8.204;2023-07-16T13:02:14;8.13;;;4.50;;
35022;SDS011;21214;44.912;8.204;2023-07-16T13:04:39;6.90;;;4.35;;
35022;SDS011;21214;44.912;8.204;2023-07-16T15:42:37;11.00;;;4.60;;
35022;SDS011;21214;44.912;8.204;2023-07-16T15:45:03;10.93;;;3.80;;
35022;SDS011;21214;44.912;8.204;2023-07-16T16:02:03;6.90;;;4.00;;
35022;SDS011;21214;44.912;8.204;2023-07-16T16:19:01;11.07;;;4.40;;
35022;SDS011;21214;44.912;8.204;2023-07-16T16:21:26;12.18;;;3.90;;
35022;SDS011;21214;44.912;8.204;2023-07-16T16:23:52;8.40;;;4.00;;
35022;SDS011;21214;44.912;8.204;2023-07-16T16:26:17;9.70;;;4.05;;
35022;SDS011;21214;44.912;8.204;2023-07-16T16:28:42;8.27;;;3.95;;
35022;SDS011;21214;44.912;8.204;2023-07-16T16:31:08;7.63;;;4.20;;
35022;SDS011;21214;44.912;8.204;2023-07-16T16:33:33;4.93;;;3.35;;
35022;SDS011;21214;44.912;8.204;2023-07-16T16:35:59;7.95;;;3.40;;
35022;SDS011;21214;44.912;8.204;2023-07-16T17:51:15;6.57;;;4.50;;
35022;SDS011;21214;44.912;8.204;2023-07-16T17:53:41;10.77;;;4.05;;
35022;SDS011;21214;44.912;8.204;2023-07-16T17:56:07;11.80;;;4.28;;
35022;SDS011;21214;44.912;8.204;2023-07-16T17:58:32;7.57;;;3.97;;
35022;SDS011;21214;44.912;8.204;2023-07-16T18:05:54;11.20;;;4.22;;
35022;SDS011;21214;44.912;8.204;2023-07-16T21:27:57;11.52;;;4.10;;
35022;SDS011;21214;44.912;8.204;2023-07-16T21:30:24;11.95;;;4.65;;
35022;SDS011;21214;44.912;8.204;2023-07-16T21:32:49;13.03;;;4.90;;
35022;SDS011;21214;44.912;8.204;2023-07-16T21:37:41;6.38;;;3.88;;
35022;SDS011;21214;44.912;8.204;2023-07-16T21:40:07;10.38;;;4.18;;
35022;SDS011;21214;44.912;8.204;2023-07-16T21:42:33;5.97;;;4.25;;
35022;SDS011;21214;44.912;8.204;2023-07-16T21:44:58;7.60;;;4.05;;
35022;SDS011;21214;44.912;8.204;2023-07-16T21:47:24;11.40;;;4.70;;
35022;SDS011;21214;44.912;8.204;2023-07-16T21:49:50;5.32;;;4.13;;
35022;SDS011;21214;44.912;8.204;2023-07-16T21:52:16;7.95;;;4.63;;
35022;SDS011;21214;44.912;8.204;2023-07-16T21:54:42;7.43;;;4.30;;
35022;SDS011;21214;44.912;8.204;2023-07-16T21:57:08;9.18;;;4.22;;
35022;SDS011;21214;44.912;8.204;2023-07-16T21:59:33;10.48;;;4.57;;
35022;SDS011;21214;44.912;8.204;2023-07-16T22:02:00;12.68;;;4.82;;
35022;SDS011;21214;44.912;8.204;2023-07-16T22:04:26;9.23;;;4.53;;
35022;SDS011;21214;44.912;8.204;2023-07-16T22:06:51;8.90;;;4.38;;
35022;SDS011;21214;44.912;8.204;2023-07-16T22:09:17;8.38;;;4.40;;
35022;SDS011;21214;44.912;8.204;2023-07-16T22:11:42;11.85;;;4.57;;
35022;SDS011;21214;44.912;8.204;2023-07-16T22:14:08;8.98;;;4.95;;
35022;SDS011;21214;44.912;8.204;2023-07-16T22:16:34;8.63;;;4.38;;
35022;SDS011;21214;44.912;8.204;2023-07-16T22:19:00;7.78;;;4.80;;
35022;SDS011;21214;44.912;8.204;2023-07-16T22:21:32;9.07;;;4.63;;
35022;SDS011;21214;44.912;8.204;2023-07-16T22:23:58;8.80;;;4.47;;
35022;SDS011;21214;44.912;8.204;2023-07-16T22:26:24;8.95;;;4.60;;
35022;SDS011;21214;44.912;8.204;2023-07-16T22:45:47;11.98;;;4.93;;
35022;SDS011;21214;44.912;8.204;2023-07-16T22:48:13;12.70;;;5.00;;
35022;SDS011;21214;44.912;8.204;2023-07-16T23:00:22;7.97;;;4.97;;
